Time;durP1;ratioP1;P1;durP2;ratioP2;P2;SDS_P1;SDS_P2;PMS_P1;PMS_P2;Temp;Humidity;BMP_temperature;BMP_pressure;BME280_temperature;BME280_humidity;BME280_pressure;Samples;Min_cycle;Max_cycle;Signal;HPM_P1;HPM_P2
2022/02/10 00:17:31;;;;;;;;;;;;;;;17.47;53.92;102140.22;4982072;28;19917;-80
2022/02/10 00:23:04;;;;;;;;;;;;;;;17.48;53.96;102136.72;5021892;28;19913;-80
2022/02/10 00:36:26;;;;;;;;;;;;;;;17.46;53.80;102122.81;5020488;28;19976;-79
2022/02/10 00:39:03;;;;;;;;;;;;;;;17.46;53.96;102123.72;5003362;28;20367;-79
2022/02/10 00:41:29;;;;;;;;;;;;;;;17.45;53.73;102116.75;5005128;28;19948;-79
2022/02/10 00:43:54;;;;;;;;;;;;;;;17.46;53.69;102115.91;5023640;28;19910;-79
2022/02/10 00:46:19;;;;;;;;;;;;;;;17.46;53.75;102112.41;5026674;28;19913;-79
2022/02/10 00:48:46;;;;;;;;;;;;;;;17.45;53.92;102114.16;5011726;28;19917;-79
2022/02/10 00:51:11;;;;;;;;;;;;;;;17.45;53.81;102116.75;5027110;28;19913;-79
2022/02/10 00:53:40;;;;;;;;;;;;;;;17.45;53.72;102108.94;5024079;28;20410;-79
2022/02/10 00:56:06;;;;;;;;;;;;;;;17.45;53.80;102102.88;5008371;28;19913;-79
2022/02/10 00:58:33;;;;;;;;;;;;;;;17.45;53.77;102103.75;5024088;28;19967;-80
2022/02/10 01:24:27;;;;;;;;;;;;;;;17.44;53.79;102088.09;5023342;28;20012;-80
2022/02/10 01:30:58;;;;;;;;;;;;;;;17.43;53.72;102068.16;5022972;28;19979;-79
2022/02/10 01:33:23;;;;;;;;;;;;;;;17.43;53.62;102063.81;5004161;28;20375;-79
2022/02/10 01:35:48;;;;;;;;;;;;;;;17.43;53.58;102062.94;5020974;28;19924;-79
2022/02/10 01:38:14;;;;;;;;;;;;;;;17.44;53.58;102064.69;5002770;28;19921;-79
2022/02/10 02:05:26;;;;;;;;;;;;;;;17.42;53.49;102028.25;5018844;28;20315;-79
2022/02/10 02:07:52;;;;;;;;;;;;;;;17.42;53.77;102028.25;5018846;28;20356;-79
2022/02/10 02:10:17;;;;;;;;;;;;;;;17.41;53.67;102023.91;5017427;28;19937;-79
2022/02/10 02:12:47;;;;;;;;;;;;;;;17.40;53.69;102022.16;5017615;28;19913;-79
2022/02/10 02:15:14;;;;;;;;;;;;;;;17.41;53.49;102021.28;5017576;28;20283;-79
2022/02/10 02:17:39;;;;;;;;;;;;;;;17.43;53.60;102018.72;5017373;28;19909;-79
2022/02/10 02:20:05;;;;;;;;;;;;;;;17.41;53.73;102012.63;5002167;28;20372;-78
2022/02/10 02:22:30;;;;;;;;;;;;;;;17.41;53.63;102018.69;5001583;28;19913;-79
2022/02/10 02:24:55;;;;;;;;;;;;;;;17.41;53.52;102013.47;5000344;28;19924;-80
2022/02/10 02:27:20;;;;;;;;;;;;;;;17.41;53.50;102007.41;5017402;28;20004;-79
2022/02/10 02:29:56;;;;;;;;;;;;;;;17.40;53.53;102003.94;5000186;28;19920;-79
2022/02/10 02:32:30;;;;;;;;;;;;;;;17.40;53.49;102001.34;5016974;28;19921;-80
2022/02/10 03:03:54;;;;;;;;;;;;;;;17.40;53.50;101993.53;5017151;28;19940;-79
2022/02/10 03:07:36;;;;;;;;;;;;;;;17.38;53.51;101984.84;5016045;28;19918;-79
2022/02/10 03:12:40;;;;;;;;;;;;;;;17.39;53.35;101978.78;5018133;28;19960;-79
2022/02/10 03:15:12;;;;;;;;;;;;;;;17.39;53.36;101980.50;5024030;28;19963;-80
2022/02/10 03:17:59;;;;;;;;;;;;;;;17.38;53.20;101971.84;5025053;28;19956;-79
2022/02/10 04:04:56;;;;;;;;;;;;;;;17.33;53.36;101965.69;4988224;28;19909;-80
2022/02/10 04:44:39;;;;;;;;;;;;;;;17.31;53.09;101972.66;5021992;28;19985;-79
2022/02/10 05:24:43;;;;;;;;;;;;;;;17.28;53.06;101977.81;4977490;28;19914;-79
2022/02/10 05:35:56;;;;;;;;;;;;;;;17.26;52.95;101969.09;5020156;28;20000;-79
2022/02/10 05:37:59;;;;;;;;;;;;;;;17.26;52.75;101963.91;5009706;28;19909;-79
2022/02/10 05:40:56;;;;;;;;;;;;;;;17.27;52.77;101968.28;5019850;28;19933;-78
2022/02/10 05:45:44;;;;;;;;;;;;;;;17.25;52.81;101942.22;5026025;28;19976;-79
2022/02/10 05:59:13;;;;;;;;;;;;;;;17.24;52.84;101976.88;5022384;28;19910;-79
2022/02/10 07:51:47;;;;;;;;;;;;;;;17.63;54.47;102034.53;5018119;28;19917;-77
2022/02/10 07:54:16;;;;;;;;;;;;;;;17.64;54.33;102037.16;5019536;28;19918;-78
2022/02/10 08:17:56;;;;;;;;;;;;;;;17.67;54.57;102051.91;5027951;28;19967;-76
2022/02/10 08:59:43;;;;;;;;;;;;;;;17.72;54.33;102086.66;5017790;28;19948;-76
2022/02/10 09:55:54;;;;;;;;;;;;;;;17.71;53.97;102105.75;5017102;28;19953;-79
2022/02/10 10:01:20;;;;;;;;;;;;;;;17.74;53.70;102110.13;5016491;28;19914;-80
2022/02/10 10:04:03;;;;;;;;;;;;;;;17.76;53.81;102114.47;5017879;28;19956;-79
2022/02/10 10:09:29;;;;;;;;;;;;;;;17.80;53.70;102118.84;4978678;28;19949;-79
2022/02/10 10:12:39;;;;;;;;;;;;;;;17.84;53.67;102125.00;5018476;28;19909;-79
2022/02/10 10:23:59;;;;;;;;;;;;;;;17.84;53.53;102131.09;5016404;28;19956;-79
2022/02/10 10:56:32;;;;;;;;;;;;;;;17.91;53.23;102152.00;5019832;28;20372;-79
2022/02/10 11:38:07;;;;;;;;;;;;;;;17.91;52.49;102141.56;4995122;28;19909;-79
2022/02/10 11:40:40;;;;;;;;;;;;;;;17.93;52.63;102145.06;5015423;28;19910;-79
2022/02/10 11:43:30;;;;;;;;;;;;;;;17.94;52.53;102149.41;5015575;28;19913;-79
2022/02/10 12:30:55;;;;;;;;;;;;;;;17.96;52.65;102147.69;5020494;28;19915;-78
2022/02/10 13:36:04;;;;;;;;;;;;;;;17.94;52.38;102116.41;5017435;28;20340;-79
2022/02/10 14:14:17;;;;;;;;;;;;;;;18.06;52.04;102136.50;5016681;28;19924;-80
2022/02/10 14:16:52;;;;;;;;;;;;;;;18.05;52.17;102137.34;5016855;28;20356;-79
2022/02/10 14:19:28;;;;;;;;;;;;;;;18.05;52.10;102132.13;5000820;28;19913;-80
2022/02/10 14:27:15;;;;;;;;;;;;;;;18.08;51.79;102137.41;5018227;28;19921;-80
2022/02/10 14:29:41;;;;;;;;;;;;;;;18.07;51.96;102135.63;5017761;28;19909;-80
2022/02/10 14:32:07;;;;;;;;;;;;;;;18.06;52.02;102134.78;5015465;28;20000;-80
2022/02/10 14:34:33;;;;;;;;;;;;;;;18.06;51.93;102137.38;5016388;28;19940;-79
2022/02/10 14:43:29;;;;;;;;;;;;;;;18.01;51.91;102143.41;5016642;28;19914;-80
2022/02/10 16:12:47;;;;;;;;;;;;;;;17.72;51.21;102146.53;5020233;28;19963;-77
2022/02/10 16:19:44;;;;;;;;;;;;;;;17.71;51.14;102142.22;4986549;28;19960;-78
2022/02/10 16:24:45;;;;;;;;;;;;;;;17.76;51.25;102135.31;5024078;28;20351;-78
2022/02/10 16:27:18;;;;;;;;;;;;;;;17.75;51.30;102122.28;5023899;28;19917;-78
2022/02/10 16:29:43;;;;;;;;;;;;;;;17.74;51.05;102123.13;5022564;28;19917;-77
2022/02/10 16:32:09;;;;;;;;;;;;;;;17.74;51.18;102125.75;5022799;28;19976;-79
2022/02/10 16:34:38;;;;;;;;;;;;;;;17.72;51.54;102128.31;5020460;28;19913;-78
2022/02/10 16:37:03;;;;;;;;;;;;;;;17.69;51.35;102126.56;5021336;28;19909;-77
2022/02/10 16:39:28;;;;;;;;;;;;;;;17.68;51.49;102130.03;5005385;28;20276;-77
2022/02/10 16:41:54;;;;;;;;;;;;;;;17.67;51.27;102130.88;5005937;28;19913;-77
2022/02/10 16:44:19;;;;;;;;;;;;;;;17.68;51.33;102132.63;5020899;28;20352;-78
2022/02/10 16:46:46;;;;;;;;;;;;;;;17.69;51.62;102133.50;5022225;28;19917;-77
2022/02/10 16:49:11;;;;;;;;;;;;;;;17.70;51.37;102143.03;5023697;28;19932;-78
2022/02/10 16:51:38;;;;;;;;;;;;;;;17.71;51.52;102143.94;5004036;28;19917;-78
2022/02/10 16:54:11;;;;;;;;;;;;;;;17.71;51.37;102144.81;5022277;28;19925;-78
2022/02/10 16:56:53;;;;;;;;;;;;;;;17.71;51.47;102144.81;5024880;28;19913;-83
2022/02/10 16:59:39;;;;;;;;;;;;;;;17.72;51.26;102140.47;5015806;28;19914;-84
2022/02/10 17:05:19;;;;;;;;;;;;;;;17.72;51.45;102133.53;5033443;28;19955;-83
2022/02/10 17:27:04;;;;;;;;;;;;;;;17.76;51.46;102153.53;5017933;28;19920;-77
2022/02/10 17:29:43;;;;;;;;;;;;;;;17.75;51.25;102150.94;5017333;28;19909;-77
2022/02/10 17:32:17;;;;;;;;;;;;;;;17.77;51.18;102160.50;5002097;28;20016;-77
2022/02/10 17:37:27;;;;;;;;;;;;;;;17.77;51.32;102155.28;5017343;28;19913;-77
2022/02/10 17:53:28;;;;;;;;;;;;;;;17.79;51.25;102163.09;5017844;28;20033;-78
2022/02/10 17:55:53;;;;;;;;;;;;;;;17.80;51.43;102157.91;5000554;28;20415;-77
2022/02/10 17:58:23;;;;;;;;;;;;;;;17.80;51.48;102157.91;5015926;28;19949;-75
2022/02/10 18:00:51;;;;;;;;;;;;;;;17.80;51.40;102154.44;5016547;28;19939;-78
2022/02/10 18:03:17;;;;;;;;;;;;;;;17.80;51.35;102157.91;5015940;28;19917;-77
2022/02/10 18:08:30;;;;;;;;;;;;;;;17.79;51.34;102163.09;5021374;28;20374;-76
2022/02/10 18:15:51;;;;;;;;;;;;;;;17.76;51.57;102171.75;5019903;28;19924;-77
2022/02/10 18:18:26;;;;;;;;;;;;;;;17.75;51.42;102172.63;5018148;28;19909;-77
2022/02/10 18:21:00;;;;;;;;;;;;;;;17.74;51.61;102170.00;5002685;28;20348;-78
2022/02/10 18:23:34;;;;;;;;;;;;;;;17.73;51.57;102171.75;5017944;28;20386;-78
2022/02/10 18:26:06;;;;;;;;;;;;;;;17.72;51.63;102169.97;5017522;28;19913;-77
2022/02/10 18:28:50;;;;;;;;;;;;;;;17.73;51.61;102173.47;5002070;28;19958;-78
2022/02/10 19:06:15;;;;;;;;;;;;;;;17.69;52.10;102162.16;5016158;28;20011;-78
2022/02/10 19:15:10;;;;;;;;;;;;;;;17.70;52.83;102163.88;5035863;28;19956;-84
2022/02/10 19:20:53;;;;;;;;;;;;;;;17.71;53.01;102163.03;5038363;28;19908;-86
2022/02/10 19:38:42;;;;;;;;;;;;;;;17.66;53.06;102157.78;4955990;28;19982;-84
2022/02/10 19:44:12;;;;;;;;;;;;;;;17.64;53.14;102172.50;4975535;29;19965;-84
2022/02/10 19:46:44;;;;;;;;;;;;;;;17.65;53.13;102175.97;4974931;29;19970;-85
2022/02/10 19:52:23;;;;;;;;;;;;;;;17.65;52.89;102178.56;4975928;29;20006;-84
2022/02/10 19:54:52;;;;;;;;;;;;;;;17.64;52.87;102171.63;4997445;28;19948;-84
2022/02/10 20:06:38;;;;;;;;;;;;;;;17.61;52.95;102176.78;5015614;28;19933;-84
2022/02/10 20:09:05;;;;;;;;;;;;;;;17.60;52.83;102169.84;5016580;28;19913;-84
2022/02/10 20:11:33;;;;;;;;;;;;;;;17.60;52.83;102167.25;5001249;28;20010;-85
2022/02/10 20:17:04;;;;;;;;;;;;;;;17.58;52.51;102168.97;5012660;28;19913;-85
2022/02/10 20:19:38;;;;;;;;;;;;;;;17.58;52.44;102171.56;5010086;28;19925;-84
2022/02/10 20:22:10;;;;;;;;;;;;;;;17.57;52.65;102172.41;5002143;28;19917;-84
2022/02/10 20:24:59;;;;;;;;;;;;;;;17.57;52.37;102172.41;5018486;28;19910;-85
2022/02/10 20:30:41;;;;;;;;;;;;;;;17.57;52.49;102183.72;5017229;28;19965;-85
2022/02/10 20:33:11;;;;;;;;;;;;;;;17.56;52.52;102176.75;4989581;28;19921;-83
2022/02/10 20:38:48;;;;;;;;;;;;;;;17.56;52.35;102173.28;4975535;29;19906;-83
2022/02/10 20:44:41;;;;;;;;;;;;;;;17.54;52.21;102169.78;4975977;29;19913;-83
2022/02/10 20:47:20;;;;;;;;;;;;;;;17.53;52.42;102163.72;4957050;29;20063;-83
2022/02/10 20:52:50;;;;;;;;;;;;;;;17.57;52.19;102164.59;4968006;29;19916;-82
2022/02/10 20:55:15;;;;;;;;;;;;;;;17.57;52.25;102164.59;4936084;29;19919;-82
2022/02/10 20:57:40;;;;;;;;;;;;;;;17.56;52.28;102157.66;4946527;28;19953;-81
2022/02/10 21:00:30;;;;;;;;;;;;;;;17.54;52.06;102152.44;4971882;29;19910;-82
2022/02/10 21:02:56;;;;;;;;;;;;;;;17.56;52.17;102149.84;4955116;29;19917;-82
2022/02/10 21:05:30;;;;;;;;;;;;;;;17.54;52.18;102147.22;4965314;29;20300;-82
2022/02/10 21:10:30;;;;;;;;;;;;;;;17.54;52.17;102151.56;5005588;28;19916;-82
2022/02/10 21:12:55;;;;;;;;;;;;;;;17.54;52.12;102154.16;4988797;28;19917;-82
2022/02/10 21:15:27;;;;;;;;;;;;;;;17.53;52.27;102142.88;4984760;28;20005;-81
2022/02/10 21:17:58;;;;;;;;;;;;;;;17.53;52.13;102152.41;4987475;28;19914;-82
2022/02/10 21:20:27;;;;;;;;;;;;;;;17.51;52.32;102151.50;5007223;28;19916;-82
2022/02/10 21:23:04;;;;;;;;;;;;;;;17.51;52.21;102149.81;4974690;28;19914;-83
2022/02/10 21:25:34;;;;;;;;;;;;;;;17.51;52.09;102149.81;4990851;28;19910;-82
2022/02/10 21:28:04;;;;;;;;;;;;;;;17.51;52.14;102143.69;4973379;28;19911;-82
2022/02/10 21:30:29;;;;;;;;;;;;;;;17.51;51.98;102141.09;4987724;28;19914;-82
2022/02/10 21:33:03;;;;;;;;;;;;;;;17.51;52.02;102152.41;4989568;28;20423;-82
2022/02/10 22:06:14;;;;;;;;;;;;;;;17.45;51.56;102147.97;5001409;28;19916;-81
2022/02/10 22:19:12;;;;;;;;;;;;;;;17.38;51.11;102153.97;5006576;28;19964;-81
2022/02/10 22:21:51;;;;;;;;;;;;;;;17.36;50.88;102153.09;5000202;28;19921;-81
2022/02/10 22:24:18;;;;;;;;;;;;;;;17.35;50.93;102148.72;5000824;28;19933;-82
2022/02/10 22:26:48;;;;;;;;;;;;;;;17.34;50.72;102160.00;4983935;28;19910;-83
2022/02/10 22:29:27;;;;;;;;;;;;;;;17.33;50.87;102159.97;4972599;28;19921;-84
2022/02/10 22:37:18;;;;;;;;;;;;;;;17.32;50.67;102147.84;4997393;28;19914;-84
2022/02/10 22:39:47;;;;;;;;;;;;;;;17.31;50.76;102153.88;5014323;28;19913;-84
2022/02/10 22:42:14;;;;;;;;;;;;;;;17.31;50.74;102149.56;5031072;28;19909;-84
2022/02/10 22:44:41;;;;;;;;;;;;;;;17.29;50.57;102148.66;5031972;28;20003;-83
2022/02/10 22:47:26;;;;;;;;;;;;;;;17.29;50.85;102153.88;5029771;28;19975;-83
2022/02/10 22:49:54;;;;;;;;;;;;;;;17.30;50.73;102154.75;5029552;28;20280;-83
2022/02/10 22:52:20;;;;;;;;;;;;;;;17.28;50.64;102154.72;5028415;28;20394;-82
2022/02/10 22:54:45;;;;;;;;;;;;;;;17.28;50.59;102147.78;5028428;28;19913;-83
2022/02/10 22:57:13;;;;;;;;;;;;;;;17.27;50.38;102153.84;5029698;28;19893;-84
2022/02/10 22:59:41;;;;;;;;;;;;;;;17.27;50.30;102166.84;5030635;28;19909;-84
2022/02/10 23:02:07;;;;;;;;;;;;;;;17.27;50.46;102160.78;5014839;28;19905;-83
2022/02/10 23:04:34;;;;;;;;;;;;;;;17.26;50.49;102164.22;5032000;28;19972;-82
2022/02/10 23:07:07;;;;;;;;;;;;;;;17.28;50.27;102167.72;5031377;28;20360;-83
2022/02/10 23:09:46;;;;;;;;;;;;;;;17.26;50.37;102164.22;5030581;28;19977;-84
2022/02/10 23:12:12;;;;;;;;;;;;;;;17.26;50.50;102156.41;5027664;28;19910;-84
2022/02/10 23:14:38;;;;;;;;;;;;;;;17.26;50.41;102161.63;5029378;28;19924;-83
2022/02/10 23:17:04;;;;;;;;;;;;;;;17.26;50.40;102170.28;5028381;28;19913;-84
2022/02/10 23:19:34;;;;;;;;;;;;;;;17.25;50.22;102170.28;5029347;28;20363;-83
2022/02/10 23:21:59;;;;;;;;;;;;;;;17.25;50.31;102165.97;5028030;28;20264;-84
2022/02/10 23:24:25;;;;;;;;;;;;;;;17.25;50.23;102150.34;5011425;28;19921;-83
2022/02/10 23:26:50;;;;;;;;;;;;;;;17.25;50.39;102162.50;5010652;28;20360;-83
2022/02/10 23:29:16;;;;;;;;;;;;;;;17.25;50.27;102165.09;5028484;28;19913;-83
2022/02/10 23:32:03;;;;;;;;;;;;;;;17.26;50.16;102169.44;5028650;28;19914;-84
2022/02/10 23:34:30;;;;;;;;;;;;;;;17.25;50.09;102170.28;5026105;28;20023;-83
2022/02/10 23:36:58;;;;;;;;;;;;;;;17.25;50.15;102163.34;5028879;28;19909;-84
2022/02/10 23:39:31;;;;;;;;;;;;;;;17.23;50.07;102162.47;5028185;28;19977;-83
2022/02/10 23:42:09;;;;;;;;;;;;;;;17.24;49.99;102171.13;5027718;28;19935;-84
2022/02/10 23:44:44;;;;;;;;;;;;;;;17.24;49.91;102177.19;4996368;28;19913;-83
2022/02/10 23:47:18;;;;;;;;;;;;;;;17.24;50.01;102174.59;5024832;28;19942;-83
2022/02/10 23:49:44;;;;;;;;;;;;;;;17.24;49.69;102176.34;5010543;28;19909;-84
2022/02/10 23:52:14;;;;;;;;;;;;;;;17.24;49.83;102176.34;5028320;28;19975;-83
2022/02/10 23:54:44;;;;;;;;;;;;;;;17.22;49.81;102181.53;5009323;28;19913;-83
2022/02/10 23:57:26;;;;;;;;;;;;;;;17.23;49.64;102180.66;5027272;28;19916;-84
